Time;durP1;ratioP1;P1;durP2;ratioP2;P2;SDS_P1;SDS_P2;PMS_P1;PMS_P2;Temp;Humidity;BMP_temperature;BMP_pressure;BME280_temperature;BME280_humidity;BME280_pressure;Samples;Min_cycle;Max_cycle;Signal;HPM_P1;HPM_P2
2022/02/14 00:02:23;;;;;;;8.27;5.60;;;;;;;;;;2613687;47;20437;-78
2022/02/14 00:04:50;;;;;;;8.97;5.80;;;;;;;;;;2614044;54;20435;-78
2022/02/14 00:07:19;;;;;;;7.27;5.20;;;;;;;;;;2613921;47;20436;-78
2022/02/14 00:09:45;;;;;;;5.60;5.13;;;;;;;;;;2614514;54;20450;-78
2022/02/14 00:12:11;;;;;;;4.83;4.37;;;;;;;;;;2614718;54;20557;-78
2022/02/14 00:14:37;;;;;;;11.73;5.90;;;;;;;;;;2613784;54;20426;-78
2022/02/14 00:17:03;;;;;;;6.00;4.90;;;;;;;;;;2614929;39;20834;-79
2022/02/14 00:19:30;;;;;;;6.63;5.07;;;;;;;;;;2614041;46;20430;-77
2022/02/14 00:21:57;;;;;;;6.83;5.37;;;;;;;;;;2614672;39;20829;-78
2022/02/14 00:24:25;;;;;;;5.30;4.53;;;;;;;;;;2614013;54;20425;-78
2022/02/14 00:26:53;;;;;;;10.90;4.83;;;;;;;;;;2614611;54;20438;-76
2022/02/14 00:29:20;;;;;;;5.90;5.30;;;;;;;;;;2612972;54;20467;-77
2022/02/14 00:31:47;;;;;;;7.37;4.70;;;;;;;;;;2614843;54;20482;-78
2022/02/14 00:34:15;;;;;;;8.13;4.77;;;;;;;;;;2614289;54;21003;-78
2022/02/14 00:36:42;;;;;;;6.07;4.70;;;;;;;;;;2613721;48;20419;-77
2022/02/14 00:39:08;;;;;;;8.30;5.40;;;;;;;;;;2615025;54;20423;-78
2022/02/14 00:41:35;;;;;;;4.60;4.27;;;;;;;;;;2613965;47;20422;-78
2022/02/14 00:44:02;;;;;;;7.03;4.80;;;;;;;;;;2614076;54;20416;-78
2022/02/14 00:46:28;;;;;;;7.00;6.40;;;;;;;;;;2613437;54;21504;-77
2022/02/14 00:48:55;;;;;;;7.27;4.67;;;;;;;;;;2613845;54;20423;-77
2022/02/14 00:51:22;;;;;;;5.80;4.23;;;;;;;;;;2614156;54;20426;-78
2022/02/14 00:53:49;;;;;;;5.00;4.50;;;;;;;;;;2613869;54;20429;-79
2022/02/14 00:56:15;;;;;;;4.60;3.87;;;;;;;;;;2614196;54;20411;-78
2022/02/14 00:58:41;;;;;;;6.90;4.73;;;;;;;;;;2614003;54;20436;-78
2022/02/14 01:01:07;;;;;;;5.67;4.97;;;;;;;;;;2614072;47;20454;-77
2022/02/14 01:03:33;;;;;;;4.20;3.90;;;;;;;;;;2613981;39;20827;-78
2022/02/14 01:06:00;;;;;;;6.73;3.70;;;;;;;;;;2614355;47;20487;-78
2022/02/14 01:08:27;;;;;;;5.00;3.70;;;;;;;;;;2613960;54;20414;-79
2022/02/14 01:10:53;;;;;;;7.27;5.07;;;;;;;;;;2614967;54;20427;-78
2022/02/14 01:13:21;;;;;;;6.10;4.83;;;;;;;;;;2614009;54;20420;-78
2022/02/14 01:15:47;;;;;;;9.53;5.40;;;;;;;;;;2613848;46;20443;-79
2022/02/14 01:18:15;;;;;;;5.20;4.70;;;;;;;;;;2614163;54;20438;-79
2022/02/14 01:20:42;;;;;;;6.23;4.60;;;;;;;;;;2613333;47;21416;-79
2022/02/14 01:23:08;;;;;;;8.20;5.37;;;;;;;;;;2613604;47;20427;-78
2022/02/14 01:25:34;;;;;;;4.50;4.10;;;;;;;;;;2614048;54;20510;-79
2022/02/14 01:28:01;;;;;;;7.27;5.23;;;;;;;;;;2614674;39;20789;-78
2022/02/14 01:30:27;;;;;;;7.37;5.17;;;;;;;;;;2613081;54;20439;-79
2022/02/14 01:32:53;;;;;;;6.17;4.93;;;;;;;;;;2613349;47;20416;-77
2022/02/14 01:35:19;;;;;;;7.00;4.50;;;;;;;;;;2614128;47;20439;-77
2022/02/14 01:37:45;;;;;;;7.53;4.90;;;;;;;;;;2614676;54;20447;-78
2022/02/14 01:40:13;;;;;;;7.40;5.57;;;;;;;;;;2614116;54;20424;-78
2022/02/14 01:42:40;;;;;;;4.83;4.33;;;;;;;;;;2613810;54;20416;-77
2022/02/14 01:45:08;;;;;;;4.70;4.30;;;;;;;;;;2613764;54;20486;-77
2022/02/14 01:47:35;;;;;;;7.70;5.73;;;;;;;;;;2613618;54;20453;-78
2022/02/14 01:50:03;;;;;;;7.60;5.20;;;;;;;;;;2613877;47;20491;-78
2022/02/14 01:52:30;;;;;;;4.90;4.40;;;;;;;;;;2613347;54;20438;-78
2022/02/14 01:54:57;;;;;;;12.50;5.50;;;;;;;;;;2613880;54;20425;-78
2022/02/14 01:57:23;;;;;;;7.00;5.00;;;;;;;;;;2613461;47;20439;-78
2022/02/14 01:59:49;;;;;;;5.57;4.40;;;;;;;;;;2613418;47;20428;-77
2022/02/14 02:02:15;;;;;;;6.50;5.00;;;;;;;;;;2613956;54;20450;-78
2022/02/14 02:04:44;;;;;;;6.93;4.70;;;;;;;;;;2613887;47;20433;-77
2022/02/14 02:07:11;;;;;;;5.77;5.17;;;;;;;;;;2614326;47;20466;-79
2022/02/14 02:09:38;;;;;;;5.20;4.80;;;;;;;;;;2614829;54;20423;-77
2022/02/14 02:15:04;;;;;;;5.10;4.70;;;;;;;;;;2614101;47;20451;-78
2022/02/14 02:17:35;;;;;;;5.30;4.80;;;;;;;;;;2613837;47;20562;-78
2022/02/14 02:20:04;;;;;;;8.70;4.27;;;;;;;;;;2614506;47;20526;-78
2022/02/14 02:22:30;;;;;;;6.53;4.77;;;;;;;;;;2614383;54;20438;-78
2022/02/14 02:24:57;;;;;;;7.33;5.33;;;;;;;;;;2614403;54;20415;-78
2022/02/14 02:27:27;;;;;;;7.10;4.93;;;;;;;;;;2614510;47;20463;-78
2022/02/14 02:29:57;;;;;;;5.10;4.57;;;;;;;;;;2614716;51;21082;-77
2022/02/14 02:32:23;;;;;;;6.90;5.60;;;;;;;;;;2613946;46;20442;-78
2022/02/14 02:34:50;;;;;;;5.03;4.33;;;;;;;;;;2614579;47;20470;-77
2022/02/14 02:37:17;;;;;;;5.20;4.80;;;;;;;;;;2614256;47;20407;-78
2022/02/14 02:39:44;;;;;;;6.40;4.90;;;;;;;;;;2615302;54;20455;-78
2022/02/14 02:42:11;;;;;;;7.23;4.43;;;;;;;;;;2614443;54;20424;-79
2022/02/14 02:44:39;;;;;;;7.00;4.40;;;;;;;;;;2615020;54;20438;-79
2022/02/14 02:47:09;;;;;;;5.03;4.63;;;;;;;;;;2614614;47;20426;-78
2022/02/14 02:49:35;;;;;;;12.10;4.60;;;;;;;;;;2615210;54;20971;-78
2022/02/14 02:52:04;;;;;;;7.63;4.37;;;;;;;;;;2614695;54;20948;-78
2022/02/14 02:54:30;;;;;;;5.50;5.00;;;;;;;;;;2613898;54;21038;-78
2022/02/14 02:56:57;;;;;;;7.97;4.73;;;;;;;;;;2615245;54;20987;-77
2022/02/14 02:59:24;;;;;;;4.40;4.10;;;;;;;;;;2614286;47;20431;-78
2022/02/14 03:01:50;;;;;;;8.80;4.47;;;;;;;;;;2613923;46;20455;-77
2022/02/14 03:04:17;;;;;;;7.00;5.30;;;;;;;;;;2613798;54;20470;-78
2022/02/14 03:06:44;;;;;;;4.97;4.57;;;;;;;;;;2615937;31;20925;-78
2022/02/14 03:09:11;;;;;;;5.93;4.20;;;;;;;;;;2614988;54;20430;-78
2022/02/14 03:11:38;;;;;;;6.63;4.93;;;;;;;;;;2614520;39;20850;-77
2022/02/14 03:14:05;;;;;;;7.20;4.60;;;;;;;;;;2613770;46;20428;-77
2022/02/14 03:16:31;;;;;;;8.60;5.00;;;;;;;;;;2613922;54;20415;-77
2022/02/14 03:18:58;;;;;;;5.00;4.60;;;;;;;;;;2613554;47;20415;-78
2022/02/14 03:21:24;;;;;;;5.07;4.67;;;;;;;;;;2614362;54;20458;-77
2022/02/14 03:23:51;;;;;;;4.40;4.00;;;;;;;;;;2613636;51;20466;-77
2022/02/14 03:26:19;;;;;;;4.90;4.50;;;;;;;;;;2614400;54;20410;-78
2022/02/14 03:28:45;;;;;;;7.77;4.27;;;;;;;;;;2613880;54;20445;-77
2022/02/14 03:31:12;;;;;;;6.00;4.40;;;;;;;;;;2614559;54;21117;-77
2022/02/14 03:33:39;;;;;;;4.43;4.03;;;;;;;;;;2613770;54;20995;-77
2022/02/14 03:36:05;;;;;;;4.33;3.97;;;;;;;;;;2614266;47;20441;-77
2022/02/14 03:38:31;;;;;;;5.27;4.80;;;;;;;;;;2614793;54;20428;-77
2022/02/14 03:40:57;;;;;;;5.03;4.53;;;;;;;;;;2614778;54;20424;-78
2022/02/14 03:43:24;;;;;;;4.50;4.10;;;;;;;;;;2613624;54;20413;-77
2022/02/14 03:45:51;;;;;;;4.60;4.20;;;;;;;;;;2613516;54;20423;-77
2022/02/14 03:48:17;;;;;;;3.93;3.63;;;;;;;;;;2614477;47;20431;-77
2022/02/14 03:50:43;;;;;;;4.80;4.03;;;;;;;;;;2613751;54;20423;-77
2022/02/14 03:53:09;;;;;;;4.57;3.97;;;;;;;;;;2613600;54;20416;-78
2022/02/14 03:55:38;;;;;;;4.43;3.90;;;;;;;;;;2613862;39;20817;-77
2022/02/14 03:58:04;;;;;;;4.00;3.17;;;;;;;;;;2614620;54;20420;-77
2022/02/14 04:00:30;;;;;;;4.20;3.80;;;;;;;;;;2614049;54;20412;-77
2022/02/14 04:02:57;;;;;;;4.13;3.77;;;;;;;;;;2614670;54;20411;-78
2022/02/14 04:05:23;;;;;;;4.53;4.03;;;;;;;;;;2613884;54;20423;-78
2022/02/14 04:07:51;;;;;;;5.90;4.50;;;;;;;;;;2613805;54;20447;-77
2022/02/14 04:10:18;;;;;;;7.70;4.23;;;;;;;;;;2615052;54;20534;-78
2022/02/14 04:12:44;;;;;;;3.70;3.43;;;;;;;;;;2613538;47;20454;-77
2022/02/14 04:15:11;;;;;;;4.47;3.93;;;;;;;;;;2614565;54;20420;-78
2022/02/14 04:17:38;;;;;;;5.63;3.73;;;;;;;;;;2614421;54;20446;-77
2022/02/14 04:20:04;;;;;;;4.83;4.13;;;;;;;;;;2615154;54;20458;-76
2022/02/14 04:22:31;;;;;;;5.73;4.80;;;;;;;;;;2613566;54;20414;-77
2022/02/14 04:24:57;;;;;;;4.73;4.27;;;;;;;;;;2614995;54;20415;-78
2022/02/14 04:27:23;;;;;;;7.03;3.70;;;;;;;;;;2613798;47;20414;-77
2022/02/14 04:29:49;;;;;;;3.87;3.53;;;;;;;;;;2614515;54;20964;-77
2022/02/14 04:32:15;;;;;;;8.50;4.53;;;;;;;;;;2613988;39;20834;-80
2022/02/14 04:34:44;;;;;;;4.30;3.90;;;;;;;;;;2613743;47;21465;-78
2022/02/14 04:37:10;;;;;;;3.57;3.27;;;;;;;;;;2615288;54;20436;-78
2022/02/14 04:39:36;;;;;;;3.60;3.20;;;;;;;;;;2614080;54;20985;-78
2022/02/14 04:42:02;;;;;;;5.00;4.00;;;;;;;;;;2614295;47;20980;-78
2022/02/14 04:44:29;;;;;;;3.20;3.00;;;;;;;;;;2613885;54;21015;-78
2022/02/14 04:46:55;;;;;;;5.37;4.20;;;;;;;;;;2613265;54;20972;-77
2022/02/14 04:49:21;;;;;;;3.90;3.60;;;;;;;;;;2614200;39;20800;-77
2022/02/14 04:51:47;;;;;;;3.87;3.43;;;;;;;;;;2614092;54;20542;-78
2022/02/14 04:54:13;;;;;;;5.53;4.80;;;;;;;;;;2613480;46;20465;-78
2022/02/14 04:56:39;;;;;;;4.33;3.87;;;;;;;;;;2613751;54;21013;-78
2022/02/14 04:59:07;;;;;;;4.07;3.77;;;;;;;;;;2613643;54;20420;-77
2022/02/14 05:01:33;;;;;;;8.43;4.03;;;;;;;;;;2613887;54;21014;-78
2022/02/14 05:03:59;;;;;;;3.10;2.80;;;;;;;;;;2613674;47;20478;-77
2022/02/14 05:06:25;;;;;;;6.70;3.63;;;;;;;;;;2613633;47;20430;-77
2022/02/14 05:08:52;;;;;;;4.93;3.60;;;;;;;;;;2613870;54;20435;-78
2022/02/14 05:11:18;;;;;;;3.40;3.10;;;;;;;;;;2614005;39;20803;-78
2022/02/14 05:13:45;;;;;;;4.13;3.27;;;;;;;;;;2613165;54;20441;-78
2022/02/14 05:16:12;;;;;;;4.10;3.70;;;;;;;;;;2612990;54;20422;-77
2022/02/14 05:18:38;;;;;;;4.50;3.23;;;;;;;;;;2614034;54;20437;-78
2022/02/14 05:21:04;;;;;;;4.03;3.73;;;;;;;;;;2614070;54;20455;-78
2022/02/14 05:23:31;;;;;;;3.10;2.80;;;;;;;;;;2613537;47;20430;-78
2022/02/14 05:25:57;;;;;;;7.23;3.90;;;;;;;;;;2614482;39;20827;-78
2022/02/14 05:28:23;;;;;;;3.27;3.07;;;;;;;;;;2613022;47;20435;-78
2022/02/14 05:30:49;;;;;;;3.90;3.50;;;;;;;;;;2613871;54;20447;-77
2022/02/14 05:33:15;;;;;;;5.80;4.90;;;;;;;;;;2612877;39;21176;-77
2022/02/14 05:35:42;;;;;;;5.63;3.43;;;;;;;;;;2613866;54;20426;-78
2022/02/14 05:38:08;;;;;;;4.00;3.70;;;;;;;;;;2613358;54;20411;-78
2022/02/14 05:40:34;;;;;;;5.13;3.10;;;;;;;;;;2613312;54;20530;-78
2022/02/14 05:43:01;;;;;;;3.40;3.10;;;;;;;;;;2612884;54;20407;-78
2022/02/14 05:45:27;;;;;;;3.87;3.50;;;;;;;;;;2613598;54;20411;-77
2022/02/14 05:47:53;;;;;;;4.00;3.27;;;;;;;;;;2614171;54;20419;-77
2022/02/14 05:50:19;;;;;;;3.90;3.60;;;;;;;;;;2613503;52;20523;-78
2022/02/14 05:52:45;;;;;;;3.50;3.20;;;;;;;;;;2612089;51;20459;-78
2022/02/14 05:55:14;;;;;;;5.27;3.23;;;;;;;;;;2613514;54;20439;-77
2022/02/14 05:57:40;;;;;;;5.53;4.30;;;;;;;;;;2613959;54;20411;-80
2022/02/14 06:00:08;;;;;;;5.07;3.43;;;;;;;;;;2612749;54;20418;-79
2022/02/14 06:02:34;;;;;;;3.40;3.20;;;;;;;;;;2612849;47;20419;-78
2022/02/14 06:05:00;;;;;;;3.87;3.50;;;;;;;;;;2613870;54;20415;-78
2022/02/14 06:07:26;;;;;;;4.00;3.53;;;;;;;;;;2613075;47;20546;-78
2022/02/14 06:09:52;;;;;;;3.83;3.17;;;;;;;;;;2614242;54;20422;-78
2022/02/14 06:12:19;;;;;;;4.73;3.53;;;;;;;;;;2613054;54;20979;-80
2022/02/14 06:14:45;;;;;;;4.70;4.07;;;;;;;;;;2612720;47;20463;-78
2022/02/14 06:17:11;;;;;;;3.97;3.67;;;;;;;;;;2613141;54;20431;-76
2022/02/14 06:19:38;;;;;;;6.30;4.60;;;;;;;;;;2613488;47;21072;-76
2022/02/14 06:22:04;;;;;;;5.13;3.50;;;;;;;;;;2614037;54;20420;-77
2022/02/14 06:24:30;;;;;;;5.17;4.40;;;;;;;;;;2613005;47;21398;-77
2022/02/14 06:26:56;;;;;;;4.00;3.70;;;;;;;;;;2613187;54;20406;-78
2022/02/14 06:29:23;;;;;;;5.13;3.80;;;;;;;;;;2613237;54;20450;-77
2022/02/14 06:31:49;;;;;;;7.90;3.80;;;;;;;;;;2613295;47;20432;-77
2022/02/14 06:34:15;;;;;;;3.77;3.53;;;;;;;;;;2613544;54;20427;-78
2022/02/14 06:36:41;;;;;;;3.50;3.20;;;;;;;;;;2612929;46;20461;-78
2022/02/14 06:39:10;;;;;;;3.63;3.33;;;;;;;;;;2614071;47;21300;-77
2022/02/14 06:41:37;;;;;;;3.27;3.00;;;;;;;;;;2613931;54;20418;-78
2022/02/14 06:44:03;;;;;;;3.73;3.40;;;;;;;;;;2612705;54;20426;-77
2022/02/14 06:46:29;;;;;;;3.90;3.60;;;;;;;;;;2613741;54;20423;-77
2022/02/14 06:48:56;;;;;;;7.83;4.30;;;;;;;;;;2612485;47;20439;-77
2022/02/14 06:51:22;;;;;;;3.60;3.23;;;;;;;;;;2613896;54;20419;-77
2022/02/14 06:53:48;;;;;;;4.80;3.53;;;;;;;;;;2613417;51;20455;-78
2022/02/14 06:56:15;;;;;;;4.00;3.57;;;;;;;;;;2615156;54;20442;-78
2022/02/14 06:58:42;;;;;;;6.17;3.90;;;;;;;;;;2613504;39;20780;-78
2022/02/14 07:01:08;;;;;;;6.00;4.23;;;;;;;;;;2612711;47;20482;-78
2022/02/14 07:03:35;;;;;;;8.97;4.10;;;;;;;;;;2613303;54;20450;-77
2022/02/14 07:06:03;;;;;;;7.27;3.80;;;;;;;;;;2613972;54;20500;-77
2022/02/14 07:08:31;;;;;;;3.70;3.40;;;;;;;;;;2614519;54;20403;-77
2022/02/14 07:10:57;;;;;;;7.33;3.73;;;;;;;;;;2613960;47;20426;-77
2022/02/14 07:13:23;;;;;;;4.40;3.93;;;;;;;;;;2613218;54;20419;-76
2022/02/14 07:15:49;;;;;;;3.90;3.50;;;;;;;;;;2614597;39;20979;-76
2022/02/14 07:18:16;;;;;;;3.80;3.20;;;;;;;;;;2614078;54;20527;-77
2022/02/14 07:20:42;;;;;;;4.33;3.53;;;;;;;;;;2613567;54;20979;-77
2022/02/14 07:23:08;;;;;;;3.83;3.53;;;;;;;;;;2613083;54;20995;-77
2022/02/14 07:25:34;;;;;;;9.40;5.17;;;;;;;;;;2614042;47;20438;-76
2022/02/14 07:28:01;;;;;;;7.20;4.03;;;;;;;;;;2614013;54;20407;-77
2022/02/14 07:31:41;;;;;;;3.40;3.20;;;;;;;;;;2618670;54;20232;-77
2022/02/14 07:34:08;;;;;;;3.60;3.30;;;;;;;;;;2636397;36;20470;-77
2022/02/14 07:36:34;;;;;;;3.80;3.57;;;;;;;;;;2619543;54;20993;-77
2022/02/14 07:39:00;;;;;;;6.03;3.00;;;;;;;;;;2619139;38;20896;-77
2022/02/14 07:41:26;;;;;;;3.37;3.17;;;;;;;;;;2618067;54;20434;-77
2022/02/14 07:43:52;;;;;;;4.17;3.87;;;;;;;;;;2619381;38;20914;-77
2022/02/14 07:46:19;;;;;;;6.07;3.63;;;;;;;;;;2619174;47;20435;-77
2022/02/14 07:48:48;;;;;;;4.60;3.53;;;;;;;;;;2619185;38;21048;-77
2022/02/14 07:51:15;;;;;;;4.40;3.73;;;;;;;;;;2618830;54;20423;-78
2022/02/14 07:53:41;;;;;;;3.80;3.50;;;;;;;;;;2619604;54;20473;-77
2022/02/14 07:56:12;;;;;;;3.50;3.30;;;;;;;;;;2618229;54;21656;-77
2022/02/14 07:58:42;;;;;;;3.73;3.43;;;;;;;;;;2619015;46;20469;-77
2022/02/14 08:01:08;;;;;;;4.10;3.70;;;;;;;;;;2618329;54;20437;-77
2022/02/14 08:03:35;;;;;;;3.73;3.43;;;;;;;;;;2619874;38;20821;-77
2022/02/14 08:06:02;;;;;;;7.30;3.67;;;;;;;;;;2618562;46;20425;-77
2022/02/14 08:08:28;;;;;;;6.03;3.33;;;;;;;;;;2619612;54;20483;-78
2022/02/14 08:10:55;;;;;;;3.73;3.43;;;;;;;;;;2618569;54;20419;-77
2022/02/14 08:13:22;;;;;;;4.13;3.70;;;;;;;;;;2618481;46;20530;-78
2022/02/14 08:15:49;;;;;;;3.63;3.43;;;;;;;;;;2748210;36;20509;-77
2022/02/14 08:18:15;;;;;;;4.43;3.23;;;;;;;;;;2618726;54;20456;-78
2022/02/14 08:20:41;;;;;;;4.20;3.90;;;;;;;;;;2619284;46;20530;-77
2022/02/14 08:23:07;;;;;;;3.60;3.33;;;;;;;;;;2619089;54;20503;-79
2022/02/14 08:25:34;;;;;;;5.20;3.40;;;;;;;;;;2617817;54;21133;-77
2022/02/14 08:28:02;;;;;;;3.67;3.47;;;;;;;;;;2616987;54;20423;-77
2022/02/14 08:30:28;;;;;;;4.73;4.20;;;;;;;;;;2617867;38;20896;-77
2022/02/14 08:32:55;;;;;;;4.70;4.27;;;;;;;;;;2617863;46;21017;-77
2022/02/14 08:35:21;;;;;;;3.67;3.37;;;;;;;;;;2616247;47;20445;-78
2022/02/14 08:37:50;;;;;;;3.53;3.33;;;;;;;;;;2618312;54;20445;-77
2022/02/14 08:40:16;;;;;;;4.50;4.10;;;;;;;;;;2616567;54;20472;-77
2022/02/14 08:42:43;;;;;;;4.73;3.50;;;;;;;;;;2614082;54;20442;-77
2022/02/14 08:45:10;;;;;;;4.17;3.20;;;;;;;;;;2613362;54;20436;-77
2022/02/14 08:47:36;;;;;;;4.10;3.23;;;;;;;;;;2612246;47;20436;-77
2022/02/14 08:50:03;;;;;;;4.43;4.00;;;;;;;;;;2613721;54;20457;-77
2022/02/14 08:52:30;;;;;;;3.80;3.50;;;;;;;;;;2613521;47;20450;-78
2022/02/14 08:54:57;;;;;;;8.63;4.00;;;;;;;;;;2613523;47;20543;-77
2022/02/14 08:57:26;;;;;;;4.53;3.50;;;;;;;;;;2613404;47;20432;-78
2022/02/14 08:59:53;;;;;;;3.40;3.10;;;;;;;;;;2614191;47;20415;-78
2022/02/14 09:02:19;;;;;;;3.50;3.30;;;;;;;;;;2613761;54;20435;-78
2022/02/14 09:04:47;;;;;;;6.97;3.27;;;;;;;;;;2614300;39;21230;-78
2022/02/14 09:07:13;;;;;;;3.83;3.53;;;;;;;;;;2614801;54;20422;-79
2022/02/14 09:09:39;;;;;;;6.20;3.70;;;;;;;;;;2614754;39;20821;-79
2022/02/14 09:12:05;;;;;;;3.70;3.07;;;;;;;;;;2614594;54;20434;-77
2022/02/14 09:14:32;;;;;;;3.97;3.57;;;;;;;;;;2615110;54;20960;-80
2022/02/14 09:16:59;;;;;;;3.57;3.17;;;;;;;;;;2615622;54;20429;-78
2022/02/14 09:19:25;;;;;;;4.13;3.50;;;;;;;;;;2614816;54;20458;-78
2022/02/14 09:21:51;;;;;;;3.70;3.50;;;;;;;;;;2615000;54;20426;-78
2022/02/14 09:24:18;;;;;;;4.40;4.00;;;;;;;;;;2614264;54;20458;-79
2022/02/14 09:26:45;;;;;;;4.37;3.97;;;;;;;;;;2614147;47;20443;-79
2022/02/14 09:29:13;;;;;;;3.70;3.20;;;;;;;;;;2633423;36;20554;-78
2022/02/14 09:31:40;;;;;;;5.03;4.30;;;;;;;;;;2614774;47;20547;-78
2022/02/14 09:34:07;;;;;;;3.40;2.70;;;;;;;;;;2615728;54;20408;-77
2022/02/14 09:36:34;;;;;;;4.50;3.70;;;;;;;;;;2614934;46;20539;-78
2022/02/14 09:39:01;;;;;;;5.83;4.13;;;;;;;;;;2614696;47;21440;-77
2022/02/14 09:41:28;;;;;;;3.83;3.53;;;;;;;;;;2614781;46;20963;-78
2022/02/14 09:43:55;;;;;;;5.70;4.67;;;;;;;;;;2614753;47;20457;-78
2022/02/14 09:46:22;;;;;;;3.93;3.60;;;;;;;;;;2614456;54;20515;-78
2022/02/14 09:48:48;;;;;;;3.13;2.80;;;;;;;;;;2615189;54;20427;-78
2022/02/14 09:51:17;;;;;;;3.73;3.43;;;;;;;;;;2614994;54;20979;-78
2022/02/14 09:53:44;;;;;;;3.93;3.63;;;;;;;;;;2613959;54;20415;-78
2022/02/14 09:56:11;;;;;;;3.97;3.03;;;;;;;;;;2614775;47;20423;-78
2022/02/14 09:58:39;;;;;;;5.57;3.60;;;;;;;;;;2615004;50;20450;-78
2022/02/14 10:01:05;;;;;;;3.33;3.10;;;;;;;;;;2615003;54;20509;-79
2022/02/14 10:03:33;;;;;;;3.17;2.90;;;;;;;;;;2614368;47;20438;-78
2022/02/14 10:06:01;;;;;;;4.67;3.87;;;;;;;;;;2614169;54;20416;-79
2022/02/14 10:08:31;;;;;;;3.20;3.00;;;;;;;;;;2614132;54;20518;-79
2022/02/14 10:11:14;;;;;;;3.60;3.40;;;;;;;;;;2614433;47;20422;-78
2022/02/14 10:13:41;;;;;;;3.47;3.17;;;;;;;;;;2614799;47;20446;-80
2022/02/14 10:16:08;;;;;;;3.70;3.40;;;;;;;;;;2613407;47;20453;-79
2022/02/14 10:18:35;;;;;;;3.87;3.27;;;;;;;;;;2615100;54;20417;-79
2022/02/14 10:21:14;;;;;;;3.40;2.77;;;;;;;;;;2614348;54;20438;-78
2022/02/14 10:23:59;;;;;;;3.07;2.67;;;;;;;;;;2614266;47;20482;-79
2022/02/14 10:26:32;;;;;;;3.10;2.90;;;;;;;;;;2614647;54;20516;-78
2022/02/14 10:28:59;;;;;;;2.70;2.30;;;;;;;;;;2614279;54;21269;-78
2022/02/14 10:31:25;;;;;;;2.33;2.13;;;;;;;;;;2615186;54;20458;-77
2022/02/14 10:33:53;;;;;;;3.13;2.87;;;;;;;;;;2614552;48;20456;-77
2022/02/14 10:36:27;;;;;;;2.77;2.53;;;;;;;;;;2614316;47;20419;-77
2022/02/14 10:38:54;;;;;;;2.30;2.20;;;;;;;;;;2614703;54;20416;-77
2022/02/14 10:41:20;;;;;;;2.00;1.90;;;;;;;;;;2614993;39;21076;-78
2022/02/14 10:43:46;;;;;;;1.80;1.70;;;;;;;;;;2614281;47;21007;-78
2022/02/14 10:46:24;;;;;;;4.93;2.20;;;;;;;;;;2614357;54;20932;-78
2022/02/14 10:48:58;;;;;;;2.13;2.03;;;;;;;;;;2613848;54;21056;-78
2022/02/14 10:51:25;;;;;;;3.30;2.30;;;;;;;;;;2614469;54;20419;-78
2022/02/14 10:53:54;;;;;;;6.50;2.53;;;;;;;;;;2614524;54;20411;-78
2022/02/14 10:56:20;;;;;;;2.50;2.00;;;;;;;;;;2613946;47;20490;-78
2022/02/14 10:58:48;;;;;;;2.70;2.00;;;;;;;;;;2615527;39;20810;-78
2022/02/14 11:01:15;;;;;;;2.00;1.90;;;;;;;;;;2613799;47;20519;-78
2022/02/14 11:03:42;;;;;;;3.13;2.27;;;;;;;;;;2615121;39;20835;-78
2022/02/14 11:06:10;;;;;;;2.40;2.20;;;;;;;;;;2614530;39;20799;-78
2022/02/14 11:08:38;;;;;;;2.50;2.40;;;;;;;;;;2615203;54;20434;-78
2022/02/14 11:11:09;;;;;;;2.50;2.30;;;;;;;;;;2614994;39;20800;-78
2022/02/14 11:13:38;;;;;;;2.63;2.43;;;;;;;;;;2614588;54;20418;-78
2022/02/14 11:16:04;;;;;;;3.80;2.90;;;;;;;;;;2614339;54;21307;-77
2022/02/14 11:18:33;;;;;;;3.67;2.57;;;;;;;;;;2613831;47;20435;-77
2022/02/14 11:21:00;;;;;;;2.30;2.20;;;;;;;;;;2614660;47;20446;-77
2022/02/14 11:23:28;;;;;;;2.37;2.27;;;;;;;;;;2614026;47;20439;-78
2022/02/14 11:26:12;;;;;;;6.67;2.90;;;;;;;;;;2614980;54;20403;-78
2022/02/14 11:28:54;;;;;;;2.13;2.03;;;;;;;;;;2614149;54;20412;-77
2022/02/14 11:31:21;;;;;;;1.77;1.67;;;;;;;;;;2615651;39;20844;-77
2022/02/14 11:33:50;;;;;;;2.70;2.10;;;;;;;;;;2613984;54;20415;-77
2022/02/14 11:36:20;;;;;;;1.83;1.73;;;;;;;;;;2614576;47;20523;-79
2022/02/14 11:38:48;;;;;;;2.20;2.10;;;;;;;;;;2613390;47;20465;-78
2022/02/14 11:41:33;;;;;;;2.70;2.50;;;;;;;;;;2614883;54;20530;-77
2022/02/14 11:44:14;;;;;;;2.40;2.20;;;;;;;;;;2614664;47;20428;-78
2022/02/14 11:46:42;;;;;;;2.67;2.37;;;;;;;;;;2614864;54;20969;-78
2022/02/14 11:49:09;;;;;;;2.73;2.57;;;;;;;;;;2614466;47;20462;-78
2022/02/14 11:52:05;;;;;;;2.07;1.97;;;;;;;;;;2615530;39;21193;-78
2022/02/14 11:54:35;;;;;;;2.50;2.30;;;;;;;;;;2613358;54;20419;-78
2022/02/14 11:57:11;;;;;;;2.07;1.97;;;;;;;;;;2614261;47;20428;-78
2022/02/14 11:59:37;;;;;;;2.60;2.20;;;;;;;;;;2613814;47;20426;-78
2022/02/14 12:02:05;;;;;;;3.30;2.33;;;;;;;;;;2614634;54;20485;-77
2022/02/14 12:04:32;;;;;;;2.13;2.03;;;;;;;;;;2614051;54;20427;-77
2022/02/14 12:07:23;;;;;;;2.27;2.17;;;;;;;;;;2614362;54;20435;-78
2022/02/14 12:12:39;;;;;;;2.50;2.20;;;;;;;;;;2614754;54;20430;-78
2022/02/14 12:20:45;;;;;;;2.50;2.30;;;;;;;;;;2614883;47;20420;-77
2022/02/14 12:23:11;;;;;;;2.23;2.13;;;;;;;;;;2615454;47;20993;-78
2022/02/14 12:25:47;;;;;;;2.47;2.30;;;;;;;;;;2614738;39;20832;-78
2022/02/14 12:28:13;;;;;;;2.40;2.10;;;;;;;;;;2615078;54;20696;-78
2022/02/14 12:30:43;;;;;;;2.40;2.30;;;;;;;;;;2615142;46;20520;-78
2022/02/14 12:33:12;;;;;;;2.60;2.50;;;;;;;;;;2615413;54;20404;-78
2022/02/14 12:35:47;;;;;;;2.50;2.40;;;;;;;;;;2615664;54;20415;-78
2022/02/14 12:38:14;;;;;;;2.97;2.77;;;;;;;;;;2615528;54;20539;-78
2022/02/14 12:40:44;;;;;;;3.10;2.90;;;;;;;;;;2615277;47;20419;-77
2022/02/14 12:43:12;;;;;;;3.23;3.03;;;;;;;;;;2614342;47;21067;-77
2022/02/14 12:45:38;;;;;;;3.23;2.93;;;;;;;;;;2615802;54;20457;-78
2022/02/14 12:48:04;;;;;;;2.70;2.60;;;;;;;;;;2615057;47;21029;-78
2022/02/14 12:50:38;;;;;;;2.70;2.50;;;;;;;;;;2615371;47;20423;-78
2022/02/14 12:53:13;;;;;;;4.03;2.90;;;;;;;;;;2614688;54;20414;-78
2022/02/14 12:55:39;;;;;;;2.90;2.40;;;;;;;;;;2615206;47;20488;-78
2022/02/14 12:58:06;;;;;;;3.63;3.33;;;;;;;;;;2613172;47;20415;-77
2022/02/14 13:00:42;;;;;;;2.97;2.77;;;;;;;;;;2615284;54;20421;-78
2022/02/14 13:03:15;;;;;;;3.00;2.70;;;;;;;;;;2614737;47;20562;-78
2022/02/14 13:05:52;;;;;;;2.43;2.33;;;;;;;;;;2615935;54;20420;-77
2022/02/14 13:08:21;;;;;;;2.50;2.40;;;;;;;;;;2614334;54;20407;-78
2022/02/14 13:10:50;;;;;;;2.57;2.33;;;;;;;;;;2615106;54;20461;-78
2022/02/14 13:13:29;;;;;;;3.20;3.00;;;;;;;;;;2614561;39;20822;-77
2022/02/14 13:15:57;;;;;;;2.50;2.40;;;;;;;;;;2614884;54;20423;-77
2022/02/14 13:18:23;;;;;;;3.00;2.80;;;;;;;;;;2615757;39;20971;-78
2022/02/14 13:20:56;;;;;;;2.80;2.60;;;;;;;;;;2615724;39;20786;-77
2022/02/14 13:23:24;;;;;;;15.03;3.07;;;;;;;;;;2614293;47;20438;-81
2022/02/14 13:25:51;;;;;;;8.33;4.10;;;;;;;;;;2615115;54;20482;-78
2022/02/14 13:28:18;;;;;;;4.53;3.60;;;;;;;;;;2614129;54;20431;-77
2022/02/14 13:30:44;;;;;;;8.57;6.63;;;;;;;;;;2614798;54;20577;-77
2022/02/14 13:33:20;;;;;;;8.77;7.80;;;;;;;;;;2614794;54;20485;-78
2022/02/14 13:35:47;;;;;;;5.77;2.63;;;;;;;;;;2615101;54;20407;-78
2022/02/14 13:38:13;;;;;;;4.70;2.80;;;;;;;;;;2614196;54;20470;-78
2022/02/14 13:40:44;;;;;;;4.03;3.03;;;;;;;;;;2614944;51;20647;-78
2022/02/14 13:43:19;;;;;;;3.23;3.03;;;;;;;;;;2615306;39;21085;-78
2022/02/14 13:45:51;;;;;;;3.33;2.53;;;;;;;;;;2615379;47;20427;-78
2022/02/14 13:48:30;;;;;;;2.83;2.63;;;;;;;;;;2615233;54;21022;-78
2022/02/14 13:51:27;;;;;;;2.60;2.40;;;;;;;;;;2614904;47;20522;-78
2022/02/14 13:54:13;;;;;;;2.50;2.30;;;;;;;;;;2615198;39;20914;-78
2022/02/14 13:56:45;;;;;;;2.93;2.70;;;;;;;;;;2616097;31;20853;-78
2022/02/14 13:59:19;;;;;;;3.40;3.10;;;;;;;;;;2614037;47;20422;-78
2022/02/14 14:01:46;;;;;;;3.80;3.03;;;;;;;;;;2614451;54;20431;-78
2022/02/14 14:04:18;;;;;;;2.77;2.57;;;;;;;;;;2614693;39;20811;-80
2022/02/14 14:06:44;;;;;;;2.97;2.77;;;;;;;;;;2614796;54;20420;-78
2022/02/14 14:09:19;;;;;;;4.00;3.60;;;;;;;;;;2615371;39;20813;-78
2022/02/14 14:11:46;;;;;;;3.20;2.70;;;;;;;;;;2615309;54;20991;-78
2022/02/14 14:14:31;;;;;;;3.20;2.50;;;;;;;;;;2615039;47;20478;-78
2022/02/14 14:16:58;;;;;;;5.67;2.40;;;;;;;;;;2614545;46;20424;-78
2022/02/14 14:19:25;;;;;;;2.87;2.77;;;;;;;;;;2614941;47;20423;-78
2022/02/14 14:21:52;;;;;;;2.63;2.50;;;;;;;;;;2614616;54;20407;-78
2022/02/14 14:24:18;;;;;;;4.20;2.67;;;;;;;;;;2615146;54;20419;-78
2022/02/14 14:26:45;;;;;;;2.87;2.67;;;;;;;;;;2614951;54;20410;-79
2022/02/14 14:29:13;;;;;;;3.33;2.90;;;;;;;;;;2614982;54;20507;-78
2022/02/14 14:31:40;;;;;;;7.57;2.90;;;;;;;;;;2613997;47;20447;-79
2022/02/14 14:34:06;;;;;;;3.57;2.80;;;;;;;;;;2614383;54;20423;-78
2022/02/14 14:36:33;;;;;;;3.67;2.77;;;;;;;;;;2615263;54;20457;-78
2022/02/14 14:38:59;;;;;;;4.97;3.00;;;;;;;;;;2614386;47;20462;-78
2022/02/14 14:41:26;;;;;;;5.73;2.97;;;;;;;;;;2615267;54;21210;-79
2022/02/14 14:43:52;;;;;;;3.87;2.90;;;;;;;;;;2614391;47;21873;-78
2022/02/14 14:46:20;;;;;;;2.90;2.67;;;;;;;;;;2615189;54;20503;-78
2022/02/14 14:48:46;;;;;;;7.50;3.23;;;;;;;;;;2614496;54;20989;-79
2022/02/14 14:51:13;;;;;;;3.20;3.00;;;;;;;;;;2615365;54;21070;-78
2022/02/14 14:53:39;;;;;;;4.77;2.80;;;;;;;;;;2613737;54;20436;-78
2022/02/14 14:56:07;;;;;;;2.90;2.60;;;;;;;;;;2614819;47;20961;-78
2022/02/14 14:58:34;;;;;;;5.03;2.50;;;;;;;;;;2614183;54;20408;-77
2022/02/14 15:01:00;;;;;;;3.47;3.17;;;;;;;;;;2614298;54;21153;-77